Time;durP1;ratioP1;P1;durP2;ratioP2;P2;SDS_P1;SDS_P2;PMS_P1;PMS_P2;Temp;Humidity;BMP_temperature;BMP_pressure;BME280_temperature;BME280_humidity;BME280_pressure;Samples;Min_cycle;Max_cycle;Signal;HPM_P1;HPM_P2
2022/06/18 00:00:27;;;;;;;1.85;1.30;;;;;;;18.76;54.94;100557.47;4932903;29;20545;-76
2022/06/18 00:03:04;;;;;;;2.42;1.38;;;;;;;18.75;56.77;100560.97;4927835;29;20055;-79
2022/06/18 00:05:35;;;;;;;2.33;1.50;;;;;;;18.68;55.87;100563.66;4932777;29;20048;-76
2022/06/18 00:08:06;;;;;;;5.53;1.40;;;;;;;18.55;57.79;100566.31;4939187;29;20047;-76
2022/06/18 00:10:35;;;;;;;2.20;1.20;;;;;;;18.47;59.39;100562.03;4935336;29;20498;-77
2022/06/18 00:16:20;;;;;;;2.93;1.40;;;;;;;18.26;60.16;100566.50;4880763;29;20068;-76
2022/06/18 00:18:50;;;;;;;2.33;1.38;;;;;;;18.25;62.01;100566.50;4922013;29;20120;-78
2022/06/18 00:21:21;;;;;;;3.22;1.38;;;;;;;18.20;62.48;100582.25;4936491;29;20055;-77
2022/06/18 00:23:50;;;;;;;2.10;1.30;;;;;;;18.16;61.48;100584.03;4930732;29;20043;-78
2022/06/18 00:26:18;;;;;;;1.83;1.10;;;;;;;18.13;64.98;100591.88;4937451;29;20047;-78
2022/06/18 00:28:47;;;;;;;2.05;1.23;;;;;;;17.99;64.85;100583.22;4933030;29;20114;-78
2022/06/18 00:31:16;;;;;;;1.63;1.40;;;;;;;17.87;62.33;100583.28;4930943;29;20043;-79
2022/06/18 00:33:44;;;;;;;3.08;1.38;;;;;;;17.77;62.90;100587.59;4931319;29;20591;-80
2022/06/18 00:36:18;;;;;;;2.03;1.40;;;;;;;17.68;63.39;100593.72;4930061;29;20074;-79
2022/06/18 00:38:49;;;;;;;2.03;1.15;;;;;;;17.59;62.50;100588.50;4932033;29;20059;-78
2022/06/18 00:41:24;;;;;;;2.35;1.55;;;;;;;17.53;64.44;100591.16;4931762;29;20130;-77
2022/06/18 00:43:58;;;;;;;2.88;1.52;;;;;;;17.47;66.41;100588.53;4942277;29;20138;-79
2022/06/18 00:46:34;;;;;;;3.35;1.67;;;;;;;17.37;64.65;100590.31;4926664;29;20508;-80
2022/06/18 00:49:08;;;;;;;1.77;1.40;;;;;;;17.29;65.95;100589.44;4937561;28;20421;-79
2022/06/18 00:51:43;;;;;;;1.60;1.23;;;;;;;17.25;66.16;100598.13;4933458;29;20047;-79
2022/06/18 00:54:21;;;;;;;1.70;1.35;;;;;;;17.21;67.79;100591.19;4934252;29;20040;-79
2022/06/18 00:56:58;;;;;;;3.22;1.75;;;;;;;17.15;67.80;100586.81;4920211;29;20554;-76
2022/06/18 00:59:34;;;;;;;4.15;1.80;;;;;;;17.07;68.26;100580.75;4932455;29;20047;-79
2022/06/18 01:02:04;;;;;;;2.95;1.40;;;;;;;16.99;69.04;100587.69;4925015;29;20095;-76
2022/06/18 01:04:34;;;;;;;3.35;1.48;;;;;;;16.91;66.75;100583.34;4926093;29;20047;-79
2022/06/18 01:07:08;;;;;;;3.08;1.77;;;;;;;16.87;67.28;100586.81;4925439;29;20055;-78
2022/06/18 01:09:37;;;;;;;2.65;1.60;;;;;;;16.81;68.63;100581.56;4922029;29;20047;-75
2022/06/18 01:12:07;;;;;;;3.58;1.70;;;;;;;16.74;68.94;100579.78;4929898;29;20568;-76
2022/06/18 01:14:36;;;;;;;4.50;1.92;;;;;;;16.62;69.08;100571.94;4928264;29;20048;-76
2022/06/18 01:17:06;;;;;;;2.60;1.77;;;;;;;16.64;70.47;100583.28;4932008;29;20051;-75
2022/06/18 01:19:37;;;;;;;4.32;1.55;;;;;;;16.60;70.99;100581.50;4941965;29;20063;-76
2022/06/18 01:22:30;;;;;;;3.38;1.60;;;;;;;16.55;71.62;100595.44;4933485;29;20493;-77
2022/06/18 01:25:00;;;;;;;2.33;1.55;;;;;;;16.51;72.40;100593.66;4933232;29;20111;-78
2022/06/18 01:27:29;;;;;;;2.13;1.55;;;;;;;16.50;72.66;100597.16;4932483;29;20043;-78
2022/06/18 01:29:57;;;;;;;4.45;1.80;;;;;;;16.46;72.71;100605.84;4931818;29;20051;-79
2022/06/18 01:32:26;;;;;;;3.92;1.88;;;;;;;16.46;72.40;100607.59;4933388;29;20075;-78
2022/06/18 01:34:55;;;;;;;5.10;2.08;;;;;;;16.41;72.54;100601.50;4934547;29;20070;-79
2022/06/18 01:37:23;;;;;;;5.40;2.33;;;;;;;16.37;73.62;100610.19;4929620;29;20055;-77
2022/06/18 01:39:52;;;;;;;6.05;2.30;;;;;;;16.33;73.64;100604.06;4928064;29;20054;-78
2022/06/18 01:42:28;;;;;;;5.65;2.47;;;;;;;16.29;75.04;100612.78;4932870;29;20056;-78
2022/06/18 01:45:07;;;;;;;3.97;2.13;;;;;;;16.26;76.25;100618.88;4928072;29;20047;-77
2022/06/18 01:47:41;;;;;;;5.32;2.08;;;;;;;16.24;78.03;100619.69;4934118;29;20509;-76
2022/06/18 01:50:14;;;;;;;4.85;2.13;;;;;;;16.24;78.48;100619.69;4933370;29;20142;-78
2022/06/18 01:52:48;;;;;;;3.20;1.88;;;;;;;16.18;77.58;100614.47;4923710;29;20048;-77
2022/06/18 01:55:21;;;;;;;3.88;1.85;;;;;;;16.13;77.47;100615.31;4923940;29;20497;-77
2022/06/18 01:57:57;;;;;;;2.88;1.85;;;;;;;16.10;77.32;100617.91;4921976;29;20052;-75
2022/06/18 02:00:27;;;;;;;4.10;1.63;;;;;;;16.17;78.92;100611.00;4931355;29;20107;-78
2022/06/18 02:02:57;;;;;;;3.25;1.92;;;;;;;16.18;79.78;100606.63;4921338;29;20459;-77
2022/06/18 02:05:26;;;;;;;4.00;2.22;;;;;;;16.18;79.72;100604.03;4926500;29;20080;-78
2022/06/18 02:07:55;;;;;;;5.03;2.25;;;;;;;16.15;79.81;100604.00;4927656;29;20048;-77
2022/06/18 02:10:29;;;;;;;3.22;2.13;;;;;;;16.16;79.48;100606.63;4925996;29;20225;-78
2022/06/18 02:13:03;;;;;;;5.03;2.33;;;;;;;16.14;77.78;100613.56;4920170;29;20563;-78
2022/06/18 02:15:47;;;;;;;4.32;2.35;;;;;;;16.11;78.45;100614.44;4929083;29;20106;-78
2022/06/18 02:18:18;;;;;;;4.93;2.53;;;;;;;16.16;78.25;100622.28;4933912;29;20110;-78
2022/06/18 02:20:50;;;;;;;4.93;2.00;;;;;;;16.14;79.22;100616.19;4934038;29;20122;-78
2022/06/18 02:23:19;;;;;;;4.30;2.15;;;;;;;16.17;79.03;100625.75;4925626;29;20486;-78
2022/06/18 02:25:48;;;;;;;5.88;2.30;;;;;;;16.17;78.78;100625.75;4923067;29;20491;-80
2022/06/18 02:28:23;;;;;;;3.50;1.85;;;;;;;16.01;78.88;100619.59;4930427;29;20513;-76
2022/06/18 02:30:53;;;;;;;2.40;1.60;;;;;;;16.12;77.66;100633.56;4918109;29;20113;-76
2022/06/18 02:33:33;;;;;;;2.70;1.60;;;;;;;16.14;75.81;100639.66;4921214;29;20078;-76
2022/06/18 02:36:11;;;;;;;2.75;1.70;;;;;;;16.12;76.86;100638.78;4926686;29;20493;-76
2022/06/18 02:38:39;;;;;;;4.13;2.20;;;;;;;16.11;77.89;100644.88;4928325;29;20621;-76
2022/06/18 02:41:08;;;;;;;3.63;2.15;;;;;;;16.11;78.59;100640.53;4920025;29;20099;-76
2022/06/18 02:43:38;;;;;;;5.57;1.83;;;;;;;16.12;79.23;100647.47;4930531;29;20056;-76
2022/06/18 02:46:07;;;;;;;3.85;2.05;;;;;;;16.14;79.92;100660.56;4926102;29;20060;-77
2022/06/18 02:48:39;;;;;;;3.60;2.00;;;;;;;16.15;79.79;100653.59;4928398;28;20052;-76
2022/06/18 02:51:08;;;;;;;3.45;2.00;;;;;;;16.16;81.17;100656.22;4921492;29;20650;-75
2022/06/18 02:53:37;;;;;;;2.53;1.70;;;;;;;16.16;78.39;100658.84;4917488;29;20119;-76
2022/06/18 02:56:07;;;;;;;2.80;1.70;;;;;;;16.15;78.08;100657.09;4933458;29;20056;-76
2022/06/18 02:58:39;;;;;;;2.88;1.50;;;;;;;16.12;77.04;100657.94;4929949;29;20107;-76
2022/06/18 03:01:10;;;;;;;4.25;1.25;;;;;;;16.10;76.57;100661.41;4930374;29;20592;-76
2022/06/18 03:03:42;;;;;;;3.17;1.52;;;;;;;16.04;76.04;100659.63;4937415;29;20515;-76
2022/06/18 03:06:12;;;;;;;3.30;1.77;;;;;;;15.99;76.67;100658.75;4930941;29;20052;-75
2022/06/18 03:08:41;;;;;;;4.25;1.67;;;;;;;15.94;75.98;100662.19;4932742;29;20055;-76
2022/06/18 03:13:57;;;;;;;2.25;1.45;;;;;;;15.87;80.77;100659.56;4936492;29;20086;-76
2022/06/18 03:16:26;;;;;;;3.63;1.42;;;;;;;15.86;79.64;100664.75;4929895;29;20122;-75
2022/06/18 03:18:57;;;;;;;2.08;1.25;;;;;;;15.81;79.86;100671.69;4931836;29;20056;-76
2022/06/18 03:21:32;;;;;;;5.80;1.70;;;;;;;15.78;78.89;100669.03;4932859;29;20051;-75
2022/06/18 03:24:01;;;;;;;2.42;1.25;;;;;;;15.76;79.30;100670.75;4929040;29;20498;-76
2022/06/18 03:26:30;;;;;;;3.13;1.70;;;;;;;15.74;80.22;100669.91;4932411;29;20048;-76
2022/06/18 03:29:01;;;;;;;2.70;1.35;;;;;;;15.72;80.21;100666.41;4930602;29;20063;-76
2022/06/18 03:31:29;;;;;;;3.70;1.23;;;;;;;15.61;80.39;100651.50;4931292;29;20054;-76
2022/06/18 03:33:58;;;;;;;5.70;1.50;;;;;;;15.67;81.91;100666.34;4930524;29;20589;-76
2022/06/18 03:36:27;;;;;;;2.15;1.40;;;;;;;15.56;82.36;100671.47;4940491;29;20084;-76
2022/06/18 03:38:56;;;;;;;2.95;1.55;;;;;;;15.43;81.08;100672.22;4933701;29;20051;-77
2022/06/18 03:41:25;;;;;;;3.88;1.48;;;;;;;15.38;80.30;100663.50;4940211;29;20051;-76
2022/06/18 03:43:54;;;;;;;2.67;1.20;;;;;;;15.38;85.97;100668.72;4934908;29;20056;-76
2022/06/18 03:46:24;;;;;;;5.75;1.60;;;;;;;15.33;82.34;100673.03;4933094;29;20039;-76
2022/06/18 03:48:57;;;;;;;4.10;1.10;;;;;;;15.31;81.90;100673.00;4932508;28;20099;-76
2022/06/18 03:51:26;;;;;;;2.53;1.60;;;;;;;15.31;83.21;100674.72;4921639;29;20487;-76
2022/06/18 03:53:55;;;;;;;4.40;1.42;;;;;;;15.31;83.48;100678.22;4926254;29;20307;-75
2022/06/18 03:56:28;;;;;;;2.03;1.35;;;;;;;15.29;83.56;100683.41;4927369;29;20052;-76
2022/06/18 03:58:56;;;;;;;;;;;;;;;15.25;83.47;100679.00;4923961;29;20075;-76
2022/06/18 04:01:29;;;;;;;2.20;1.15;;;;;;;15.26;83.84;100683.38;4921430;29;19927;-76
2022/06/18 04:03:57;;;;;;;1.77;1.10;;;;;;;15.26;83.00;100691.19;4933132;29;20055;-75
2022/06/18 04:06:26;;;;;;;3.35;1.40;;;;;;;15.22;81.67;100685.94;4938402;29;20168;-76
2022/06/18 04:08:55;;;;;;;2.10;1.40;;;;;;;15.15;81.40;100689.34;4926936;29;20048;-76
2022/06/18 04:11:24;;;;;;;2.22;1.10;;;;;;;15.12;84.96;100692.81;4928498;29;20056;-76
2022/06/18 04:13:54;;;;;;;4.53;1.30;;;;;;;15.10;86.82;100697.13;4925470;29;20636;-76
2022/06/18 04:16:23;;;;;;;3.60;1.42;;;;;;;15.11;87.78;100696.25;4924794;29;20044;-76
2022/06/18 04:18:53;;;;;;;4.72;1.75;;;;;;;15.12;88.20;100698.03;4926418;29;20134;-77
2022/06/18 04:21:21;;;;;;;3.17;1.40;;;;;;;15.11;86.97;100698.88;4925214;29;20052;-77
2022/06/18 04:23:50;;;;;;;2.22;1.20;;;;;;;15.07;89.60;100699.69;4931523;29;20054;-76
2022/06/18 04:26:19;;;;;;;2.63;1.38;;;;;;;15.01;89.80;100703.13;4924766;29;20044;-77
2022/06/18 04:28:47;;;;;;;4.88;1.70;;;;;;;14.95;89.60;100704.78;4931555;29;20062;-77
2022/06/18 04:31:16;;;;;;;4.15;1.70;;;;;;;14.95;89.49;100708.25;4931296;29;20048;-77
2022/06/18 04:33:44;;;;;;;3.72;1.60;;;;;;;14.95;90.28;100712.59;4934159;29;20054;-77
2022/06/18 04:36:30;;;;;;;4.97;1.42;;;;;;;14.93;89.67;100709.09;4925707;29;20577;-76
2022/06/18 04:38:59;;;;;;;3.15;1.75;;;;;;;14.93;90.07;100717.78;4927599;29;20107;-76
2022/06/18 04:41:28;;;;;;;1.98;1.48;;;;;;;14.84;90.19;100710.75;4930890;29;20044;-77
2022/06/18 04:43:58;;;;;;;2.40;1.50;;;;;;;14.92;91.33;100728.19;4934477;29;20529;-76
2022/06/18 04:46:26;;;;;;;2.35;1.52;;;;;;;14.90;90.33;100741.19;4932580;29;20390;-76
2022/06/18 04:48:55;;;;;;;3.00;1.33;;;;;;;14.88;89.60;100740.31;4932104;28;20056;-76
2022/06/18 04:51:25;;;;;;;3.78;1.40;;;;;;;14.80;90.01;100736.75;4930817;29;20067;-76
2022/06/18 04:53:53;;;;;;;3.10;1.70;;;;;;;14.71;90.47;100734.91;4923564;29;20131;-76
2022/06/18 04:56:22;;;;;;;4.90;1.55;;;;;;;14.62;92.29;100745.22;4934721;29;20095;-76
2022/06/18 04:58:50;;;;;;;2.92;1.60;;;;;;;14.60;94.40;100747.78;4922120;29;20055;-76
2022/06/18 05:01:21;;;;;;;3.58;1.40;;;;;;;14.62;94.43;100755.63;4936104;29;20273;-76
2022/06/18 05:03:49;;;;;;;2.63;1.60;;;;;;;14.63;95.30;100762.56;4931991;29;20055;-76
2022/06/18 05:06:18;;;;;;;2.92;1.15;;;;;;;14.62;97.13;100758.22;4933645;29;20047;-76
2022/06/18 05:08:48;;;;;;;2.55;1.42;;;;;;;14.59;97.16;100761.69;4933311;29;20056;-76
2022/06/18 05:11:16;;;;;;;4.85;1.88;;;;;;;14.56;98.53;100761.63;4932397;29;20059;-76
2022/06/18 05:13:45;;;;;;;2.40;1.52;;;;;;;14.57;98.80;100767.72;4928749;29;20051;-76
2022/06/18 05:16:13;;;;;;;4.78;1.40;;;;;;;14.58;97.31;100769.47;4923924;29;20462;-76
2022/06/18 05:18:47;;;;;;;3.05;1.70;;;;;;;14.59;96.72;100776.41;4932684;29;20044;-76
2022/06/18 05:21:15;;;;;;;3.50;1.98;;;;;;;14.61;96.49;100779.91;4933764;29;20051;-76
2022/06/18 05:23:44;;;;;;;3.72;1.70;;;;;;;14.60;96.10;100778.16;4932317;29;20065;-76
2022/06/18 05:26:16;;;;;;;2.58;1.30;;;;;;;14.61;95.19;100779.91;4928110;29;20103;-77
2022/06/18 05:28:45;;;;;;;2.28;1.17;;;;;;;14.59;93.43;100774.69;4933401;29;20083;-76
2022/06/18 05:31:13;;;;;;;4.00;1.30;;;;;;;14.61;93.77;100777.28;4928135;29;20494;-76
2022/06/18 05:33:42;;;;;;;3.50;1.42;;;;;;;14.57;94.29;100768.59;4933622;29;20082;-77
2022/06/18 05:36:19;;;;;;;2.20;1.30;;;;;;;14.59;95.12;100773.78;4927462;29;20052;-77
2022/06/18 05:38:49;;;;;;;2.78;1.45;;;;;;;14.59;95.82;100781.59;4932731;29;20056;-77
2022/06/18 05:41:19;;;;;;;3.35;1.98;;;;;;;14.59;96.34;100776.41;4928555;29;20047;-76
2022/06/18 05:43:48;;;;;;;3.13;1.73;;;;;;;14.57;96.65;100772.94;4922824;29;20063;-76
2022/06/18 05:46:16;;;;;;;2.80;1.45;;;;;;;14.56;96.67;100771.16;4930184;29;20048;-76
2022/06/18 05:48:45;;;;;;;2.17;1.50;;;;;;;14.57;97.60;100772.94;4927689;28;20509;-75
2022/06/18 05:51:13;;;;;;;3.38;1.20;;;;;;;14.53;97.91;100771.09;4932135;29;20519;-75
2022/06/18 05:53:42;;;;;;;2.47;1.35;;;;;;;14.54;99.22;100783.25;4926343;29;20180;-76
2022/06/18 05:56:12;;;;;;;1.60;1.27;;;;;;;14.53;99.66;100781.50;4928972;29;20107;-76
2022/06/18 05:58:42;;;;;;;2.65;2.00;;;;;;;14.53;100.00;100776.31;4931552;29;20106;-76
2022/06/18 06:01:10;;;;;;;2.58;1.45;;;;;;;14.52;100.00;100778.00;4927210;29;20435;-76
2022/06/18 06:03:39;;;;;;;5.13;1.70;;;;;;;14.51;100.00;100773.66;4930793;29;20051;-76
2022/06/18 06:06:07;;;;;;;3.75;1.75;;;;;;;14.51;100.00;100770.19;4928978;29;20115;-76
2022/06/18 06:08:36;;;;;;;3.38;1.52;;;;;;;14.50;100.00;100771.03;4928025;29;20092;-76
2022/06/18 06:13:51;;;;;;;3.72;2.25;;;;;;;14.43;100.00;100770.06;4926742;29;20640;-76
2022/06/18 06:16:21;;;;;;;4.88;2.20;;;;;;;14.43;100.00;100772.66;4927973;29;20048;-75
2022/06/18 06:18:49;;;;;;;5.05;1.92;;;;;;;14.44;100.00;100777.03;4925219;29;20146;-76
2022/06/18 06:21:18;;;;;;;4.43;2.15;;;;;;;14.44;100.00;100767.50;4927063;29;20052;-76
2022/06/18 06:23:47;;;;;;;4.95;2.15;;;;;;;14.44;100.00;100766.63;4931708;29;20501;-76
2022/06/18 06:26:20;;;;;;;4.90;2.08;;;;;;;14.43;100.00;100768.38;4917410;29;20056;-76
2022/06/18 06:28:49;;;;;;;5.53;2.22;;;;;;;14.44;100.00;100771.84;4920293;29;20112;-76
2022/06/18 06:31:20;;;;;;;2.60;1.85;;;;;;;14.42;100.00;100764.00;4917564;29;20100;-76
2022/06/18 06:33:48;;;;;;;6.57;2.20;;;;;;;14.42;100.00;100763.13;4922174;29;20596;-76
2022/06/18 06:36:17;;;;;;;5.15;2.65;;;;;;;14.39;100.00;100763.97;4932880;29;20051;-76
2022/06/18 06:38:46;;;;;;;4.10;2.28;;;;;;;14.39;100.00;100763.97;4918075;29;20056;-76
2022/06/18 06:41:19;;;;;;;3.97;2.15;;;;;;;14.37;100.00;100760.47;4917155;29;20107;-77
2022/06/18 06:43:48;;;;;;;14.40;2.55;;;;;;;14.36;100.00;100763.03;4917097;29;20526;-76
2022/06/18 06:46:19;;;;;;;3.50;2.40;;;;;;;14.31;100.00;100755.16;4930323;29;20504;-76
2022/06/18 06:48:48;;;;;;;3.53;2.45;;;;;;;14.26;100.00;100762.03;4942485;28;20566;-76
2022/06/18 06:51:20;;;;;;;4.35;2.25;;;;;;;14.17;100.00;100767.97;4923430;29;20052;-76
2022/06/18 06:53:49;;;;;;;6.80;1.90;;;;;;;14.13;100.00;100770.50;4923206;29;20052;-76
2022/06/18 06:59:05;;;;;;;4.55;2.03;;;;;;;14.13;100.00;100761.00;4930699;29;20103;-76
2022/06/18 07:01:35;;;;;;;4.18;1.85;;;;;;;14.12;100.00;100760.97;4931612;29;20047;-76
2022/06/18 07:04:05;;;;;;;4.15;2.15;;;;;;;14.07;100.00;100763.50;4931331;29;20059;-77
2022/06/18 07:06:35;;;;;;;3.40;2.55;;;;;;;14.03;100.00;100770.38;4931673;29;20134;-76
2022/06/18 07:09:03;;;;;;;5.70;2.50;;;;;;;13.97;100.00;100761.59;4930614;29;20052;-75
2022/06/18 07:11:33;;;;;;;4.90;1.95;;;;;;;13.96;100.00;100765.06;4923199;29;20087;-76
2022/06/18 07:14:01;;;;;;;4.10;1.73;;;;;;;13.94;100.00;100767.63;4928263;29;20052;-76
2022/06/18 07:16:30;;;;;;;4.65;2.10;;;;;;;13.92;100.00;100763.25;4933780;29;20545;-75
2022/06/18 07:19:00;;;;;;;2.75;1.92;;;;;;;13.90;100.00;100770.16;4935731;29;20118;-76
2022/06/18 07:21:34;;;;;;;3.30;1.65;;;;;;;13.91;100.00;100770.19;4929070;29;20052;-75
2022/06/18 07:24:02;;;;;;;2.65;1.52;;;;;;;13.95;100.00;100774.59;4925592;29;20517;-74
2022/06/18 07:26:31;;;;;;;2.22;1.67;;;;;;;13.97;100.00;100774.59;4934548;29;20489;-75
2022/06/18 07:29:00;;;;;;;2.78;1.77;;;;;;;13.99;100.00;100783.31;4934697;29;20502;-74
2022/06/18 07:31:33;;;;;;;3.92;1.58;;;;;;;13.98;100.00;100784.16;4935037;29;20126;-75
2022/06/18 07:34:06;;;;;;;2.95;2.00;;;;;;;13.99;100.00;100780.69;4936093;29;20616;-75
2022/06/18 07:36:35;;;;;;;4.05;1.85;;;;;;;14.00;100.00;100791.13;4934603;29;20103;-76
2022/06/18 07:39:04;;;;;;;2.85;1.63;;;;;;;14.02;100.00;100786.84;4932682;29;20098;-76
2022/06/18 07:41:36;;;;;;;5.43;2.35;;;;;;;14.03;100.00;100785.97;4934034;29;20442;-76
2022/06/18 07:44:05;;;;;;;6.03;1.93;;;;;;;14.01;100.00;100782.47;4932856;29;20052;-76
2022/06/18 07:46:34;;;;;;;3.75;1.98;;;;;;;14.01;100.00;100777.28;4935948;29;20286;-76
2022/06/18 07:49:05;;;;;;;3.67;1.90;;;;;;;14.00;100.00;100778.13;4938688;28;20532;-76
2022/06/18 07:51:33;;;;;;;3.20;1.98;;;;;;;13.97;100.00;100780.69;4951738;29;20055;-76
2022/06/18 07:54:02;;;;;;;10.60;2.17;;;;;;;13.96;100.00;100776.31;4934733;29;20043;-76
2022/06/18 07:56:31;;;;;;;5.32;2.05;;;;;;;13.93;100.00;100776.28;4935415;29;20051;-76
2022/06/18 07:59:00;;;;;;;5.13;2.03;;;;;;;13.91;100.00;100779.72;4935135;29;20052;-76
2022/06/18 08:01:29;;;;;;;3.67;1.95;;;;;;;13.89;100.00;100776.22;4934723;29;20451;-76
2022/06/18 08:03:57;;;;;;;4.32;1.85;;;;;;;13.85;100.00;100775.28;4944170;29;20494;-76
2022/06/18 08:06:27;;;;;;;3.22;2.00;;;;;;;13.83;100.00;100779.56;4934205;29;20058;-76
2022/06/18 08:08:56;;;;;;;2.15;1.77;;;;;;;13.80;100.00;100782.13;4933581;29;20051;-76
2022/06/18 08:11:25;;;;;;;2.88;1.98;;;;;;;13.78;100.00;100784.69;4934884;29;20048;-76
2022/06/18 08:13:54;;;;;;;4.22;2.20;;;;;;;13.75;100.00;100789.00;4931303;29;20051;-75
2022/06/18 08:16:23;;;;;;;2.75;1.73;;;;;;;13.70;100.00;100785.41;4934233;29;20048;-75
2022/06/18 08:18:51;;;;;;;4.15;2.13;;;;;;;13.58;100.00;100789.56;4943206;29;20139;-75
2022/06/18 08:21:25;;;;;;;5.70;2.17;;;;;;;13.51;100.00;100787.69;4933617;29;20501;-76
2022/06/18 08:24:01;;;;;;;5.05;2.33;;;;;;;13.51;100.00;100794.63;4933315;29;20051;-76
2022/06/18 08:26:29;;;;;;;4.18;2.08;;;;;;;13.49;100.00;100786.81;4934068;29;20056;-76
2022/06/18 08:28:58;;;;;;;3.70;2.03;;;;;;;13.44;100.00;100798.81;4931393;29;20052;-76
2022/06/18 08:31:27;;;;;;;7.53;2.05;;;;;;;13.44;100.00;100793.63;4935166;29;20102;-76
2022/06/18 08:33:56;;;;;;;3.00;1.70;;;;;;;13.44;100.00;100798.81;4932726;29;20541;-76
2022/06/18 08:36:26;;;;;;;4.05;1.70;;;;;;;13.45;100.00;100790.19;4934250;29;20040;-76
2022/06/18 08:38:56;;;;;;;3.47;2.55;;;;;;;13.45;100.00;100791.94;4931968;29;20048;-76
2022/06/18 08:41:45;;;;;;;2.97;1.38;;;;;;;13.41;100.00;100785.78;4933177;29;20517;-75
2022/06/18 08:44:45;;;;;;;3.72;2.03;;;;;;;13.44;100.00;100791.03;4934744;29;20044;-75
2022/06/18 08:47:26;;;;;;;3.10;1.70;;;;;;;13.38;100.00;100789.22;4941645;29;20055;-75
2022/06/18 08:50:21;;;;;;;3.08;1.73;;;;;;;13.43;100.00;100798.81;4935566;28;20059;-75
2022/06/18 08:53:12;;;;;;;3.40;1.50;;;;;;;13.42;100.00;100797.91;4932088;29;20498;-75
2022/06/18 08:55:49;;;;;;;4.18;2.05;;;;;;;13.42;100.00;100800.53;4932309;29;20143;-76
2022/06/18 08:58:26;;;;;;;3.53;1.98;;;;;;;13.31;100.00;100786.44;4928753;29;20063;-75
2022/06/18 09:00:59;;;;;;;6.85;1.90;;;;;;;13.41;100.00;100816.97;4933195;29;20106;-76
2022/06/18 09:03:41;;;;;;;4.05;1.88;;;;;;;13.41;100.00;100815.25;4929778;29;20048;-75
2022/06/18 09:06:28;;;;;;;7.00;1.67;;;;;;;13.39;100.00;100822.13;4931243;29;20517;-75
2022/06/18 09:09:07;;;;;;;2.22;1.40;;;;;;;13.36;100.00;100832.47;4933254;29;20047;-74
2022/06/18 09:12:01;;;;;;;3.13;1.77;;;;;;;13.33;100.00;100831.53;4940272;29;20083;-75
2022/06/18 09:14:38;;;;;;;2.92;2.00;;;;;;;13.31;100.00;100825.44;4935405;29;20047;-75
2022/06/18 09:17:12;;;;;;;5.30;2.17;;;;;;;13.32;100.00;100827.19;4936755;29;20108;-75
2022/06/18 09:19:43;;;;;;;2.95;1.70;;;;;;;13.33;100.00;100828.94;4931724;29;20047;-75
2022/06/18 09:22:17;;;;;;;2.95;1.80;;;;;;;13.32;100.00;100824.59;4919610;29;20107;-75
2022/06/18 09:24:47;;;;;;;3.28;1.98;;;;;;;13.34;100.00;100839.38;4917197;29;20052;-76
2022/06/18 09:27:23;;;;;;;3.03;1.90;;;;;;;13.35;100.00;100835.03;4920760;29;20056;-76
2022/06/18 09:30:02;;;;;;;3.13;1.70;;;;;;;13.34;100.00;100830.69;4934606;29;20051;-76
2022/06/18 09:32:37;;;;;;;5.43;1.88;;;;;;;13.33;100.00;100831.53;4932776;29;20065;-75
2022/06/18 09:35:12;;;;;;;3.78;1.77;;;;;;;13.32;100.00;100835.84;4933256;29;20543;-75
2022/06/18 09:37:47;;;;;;;5.13;1.90;;;;;;;13.33;100.00;100826.34;4930212;29;20055;-76
2022/06/18 09:40:21;;;;;;;4.35;1.95;;;;;;;13.33;100.00;100834.13;4929694;29;20062;-76
2022/06/18 09:42:58;;;;;;;3.17;1.65;;;;;;;13.35;100.00;100840.25;4935929;29;20054;-75
2022/06/18 09:45:32;;;;;;;4.28;1.83;;;;;;;13.36;100.00;100835.09;4933144;29;20120;-75
2022/06/18 09:48:03;;;;;;;5.35;1.88;;;;;;;13.37;100.00;100833.34;4943171;29;20115;-75
2022/06/18 09:50:37;;;;;;;5.25;1.80;;;;;;;13.37;100.00;100835.94;4935880;28;20557;-75
2022/06/18 09:53:09;;;;;;;5.20;2.13;;;;;;;13.38;100.00;100833.38;4933141;29;20048;-76
2022/06/18 09:55:43;;;;;;;5.30;2.45;;;;;;;13.38;100.00;100833.38;4936717;29;20047;-75
2022/06/18 09:58:19;;;;;;;3.95;1.88;;;;;;;13.37;100.00;100838.53;4928476;29;20048;-75
2022/06/18 10:00:48;;;;;;;2.47;1.70;;;;;;;13.34;100.00;100835.91;4932122;29;20055;-75
2022/06/18 10:08:50;;;;;;;2.95;1.60;;;;;;;13.33;100.00;100837.63;4929355;29;20059;-75
2022/06/18 10:11:22;;;;;;;5.60;2.00;;;;;;;13.34;100.00;100841.09;4942762;29;20513;-75
2022/06/18 10:13:58;;;;;;;3.70;1.88;;;;;;;13.34;100.00;100841.09;4945297;29;20115;-74
2022/06/18 10:16:35;;;;;;;5.43;1.73;;;;;;;13.34;100.00;100838.50;4933195;29;20109;-76
2022/06/18 10:19:12;;;;;;;4.25;1.60;;;;;;;13.30;100.00;100837.53;4938731;29;20043;-75
2022/06/18 10:21:48;;;;;;;3.05;1.70;;;;;;;13.30;100.00;100841.88;4927985;29;20059;-75
2022/06/18 10:24:23;;;;;;;3.42;1.98;;;;;;;13.28;100.00;100843.56;4929912;29;20704;-75
2022/06/18 10:27:00;;;;;;;3.97;2.13;;;;;;;13.12;100.00;100822.44;4931669;29;20557;-75
2022/06/18 10:29:41;;;;;;;2.67;1.70;;;;;;;13.10;100.00;100842.34;4925726;29;20047;-74
2022/06/18 10:32:22;;;;;;;2.92;1.70;;;;;;;13.05;100.00;100841.34;4931698;29;20510;-77
2022/06/18 10:35:16;;;;;;;4.68;1.77;;;;;;;13.01;100.00;100839.56;4930152;29;20052;-74
2022/06/18 10:37:59;;;;;;;3.33;2.05;;;;;;;13.00;100.00;100841.25;4938771;29;20043;-74
2022/06/18 10:40:50;;;;;;;3.75;2.20;;;;;;;13.02;100.00;100846.47;4928820;29;20417;-75
2022/06/18 10:43:41;;;;;;;5.10;1.63;;;;;;;13.05;100.00;100841.34;4939310;29;20065;-74
2022/06/18 10:46:15;;;;;;;3.30;1.98;;;;;;;13.08;100.00;100845.72;4924012;29;20057;-74
2022/06/18 10:48:48;;;;;;;7.35;2.05;;;;;;;13.08;100.00;100854.41;4929589;28;20109;-74
2022/06/18 10:51:24;;;;;;;6.50;2.15;;;;;;;13.06;100.00;100853.50;4929996;28;20060;-74
2022/06/18 10:53:55;;;;;;;6.70;2.85;;;;;;;13.01;100.00;100860.31;4930036;29;20063;-75
2022/06/18 10:56:26;;;;;;;4.45;2.22;;;;;;;12.92;100.00;100854.94;4928483;29;20107;-76
2022/06/18 10:58:56;;;;;;;4.82;2.60;;;;;;;12.86;100.00;100854.78;4931528;29;20047;-76
2022/06/18 11:01:32;;;;;;;5.75;2.60;;;;;;;12.77;100.00;100866.72;4928561;29;20059;-75
2022/06/18 11:04:04;;;;;;;9.85;3.03;;;;;;;12.73;100.00;100871.81;4927220;29;20159;-75
2022/06/18 11:06:34;;;;;;;3.08;2.10;;;;;;;12.69;100.00;100876.06;4927041;29;20070;-76
2022/06/18 11:09:04;;;;;;;5.28;2.80;;;;;;;12.66;100.00;100888.09;4922103;28;20051;-75
2022/06/18 11:11:36;;;;;;;7.20;2.33;;;;;;;12.65;100.00;100892.41;4948130;29;20109;-75
2022/06/18 11:14:17;;;;;;;3.22;1.92;;;;;;;12.59;100.00;100887.06;4928568;29;20048;-74
2022/06/18 11:16:49;;;;;;;2.92;1.90;;;;;;;12.56;100.00;100885.28;4930857;29;20577;-75
2022/06/18 11:19:19;;;;;;;8.95;2.03;;;;;;;12.59;100.00;100900.06;4923298;29;20568;-75
2022/06/18 11:21:48;;;;;;;3.88;2.38;;;;;;;12.59;100.00;100897.47;4924042;29;20056;-75
2022/06/18 11:24:30;;;;;;;2.97;1.90;;;;;;;12.59;100.00;100902.66;4925574;29;20052;-75
2022/06/18 11:27:02;;;;;;;2.60;1.70;;;;;;;12.63;100.00;100904.47;4939211;29;20106;-75
2022/06/18 11:29:34;;;;;;;3.67;1.58;;;;;;;12.68;100.00;100912.38;4920882;29;20091;-75
2022/06/18 11:32:11;;;;;;;5.50;2.08;;;;;;;12.70;100.00;100906.38;4932058;29;20052;-75
2022/06/18 11:34:44;;;;;;;6.68;2.63;;;;;;;12.73;100.00;100911.63;4919543;29;20044;-75
2022/06/18 11:37:25;;;;;;;4.35;1.92;;;;;;;12.72;100.00;100915.06;4939002;29;20044;-75
2022/06/18 11:39:57;;;;;;;4.60;2.08;;;;;;;12.64;100.00;100915.72;4916034;29;20145;-74
2022/06/18 11:42:31;;;;;;;4.93;1.90;;;;;;;12.58;100.00;100914.75;4929252;29;20124;-75
2022/06/18 11:45:14;;;;;;;4.18;2.03;;;;;;;12.53;100.00;100918.09;4938819;29;20048;-75
2022/06/18 11:47:49;;;;;;;;;;;;;;;12.49;100.00;100921.44;4928601;29;20079;-75
2022/06/18 11:50:27;;;;;;;9.68;1.52;;;;;;;12.49;100.00;100927.50;4919554;28;19930;-75
2022/06/18 11:53:02;;;;;;;3.13;1.55;;;;;;;12.51;100.00;100927.56;4916957;29;20510;-75
2022/06/18 11:55:36;;;;;;;7.95;1.63;;;;;;;12.53;100.00;100936.25;4919124;29;20059;-75
2022/06/18 11:58:14;;;;;;;3.83;1.67;;;;;;;12.54;100.00;100938.00;4916508;29;20052;-76
2022/06/18 12:00:50;;;;;;;3.95;1.77;;;;;;;12.57;100.00;100935.47;4929406;29;20489;-75